sensor_id;sensor_type;location;lat;lon;timestamp;temperature;humidity
32095;DHT22;18608;53.688;10.748;2022-11-23T00:00:00;2.10;99.90
32095;DHT22;18608;53.688;10.748;2022-11-23T00:02:26;2.10;99.90
32095;DHT22;18608;53.688;10.748;2022-11-23T00:04:52;2.10;99.90
32095;DHT22;18608;53.688;10.748;2022-11-23T00:07:17;2.10;99.90
32095;DHT22;18608;53.688;10.748;2022-11-23T00:09:43;2.10;99.90
32095;DHT22;18608;53.688;10.748;2022-11-23T00:12:09;2.10;99.90
32095;DHT22;18608;53.688;10.748;2022-11-23T00:14:34;2.10;99.90
32095;DHT22;18608;53.688;10.748;2022-11-23T00:17:00;2.00;99.90
32095;DHT22;18608;53.688;10.748;2022-11-23T00:19:26;2.00;99.90
32095;DHT22;18608;53.688;10.748;2022-11-23T00:21:51;2.10;99.90
32095;DHT22;18608;53.688;10.748;2022-11-23T00:24:17;2.10;99.90
32095;DHT22;18608;53.688;10.748;2022-11-23T00:26:42;2.10;99.90
32095;DHT22;18608;53.688;10.748;2022-11-23T00:29:08;2.10;99.90
32095;DHT22;18608;53.688;10.748;2022-11-23T00:31:34;2.10;99.90
32095;DHT22;18608;53.688;10.748;2022-11-23T00:34:00;2.10;99.90
32095;DHT22;18608;53.688;10.748;2022-11-23T00:36:26;2.10;99.90
32095;DHT22;18608;53.688;10.748;2022-11-23T00:38:52;2.10;99.90
32095;DHT22;18608;53.688;10.748;2022-11-23T00:41:23;2.10;99.90
32095;DHT22;18608;53.688;10.748;2022-11-23T00:43:49;2.10;99.90
32095;DHT22;18608;53.688;10.748;2022-11-23T00:46:21;2.20;99.90
32095;DHT22;18608;53.688;10.748;2022-11-23T00:48:49;2.20;99.90
32095;DHT22;18608;53.688;10.748;2022-11-23T00:51:27;2.20;99.90
32095;DHT22;18608;53.688;10.748;2022-11-23T00:53:53;2.20;99.90
32095;DHT22;18608;53.688;10.748;2022-11-23T00:56:20;2.20;99.90
32095;DHT22;18608;53.688;10.748;2022-11-23T00:58:50;2.20;99.90
32095;DHT22;18608;53.688;10.748;2022-11-23T01:01:18;2.20;99.90
32095;DHT22;18608;53.688;10.748;2022-11-23T01:03:50;2.20;99.90
32095;DHT22;18608;53.688;10.748;2022-11-23T01:06:27;2.20;99.90
32095;DHT22;18608;53.688;10.748;2022-11-23T01:09:13;2.20;99.90
32095;DHT22;18608;53.688;10.748;2022-11-23T01:11:40;2.20;99.90
32095;DHT22;18608;53.688;10.748;2022-11-23T01:14:06;2.20;99.90
32095;DHT22;18608;53.688;10.748;2022-11-23T01:16:36;2.30;99.90
32095;DHT22;18608;53.688;10.748;2022-11-23T01:19:05;2.30;99.90
32095;DHT22;18608;53.688;10.748;2022-11-23T01:21:32;2.30;99.90
32095;DHT22;18608;53.688;10.748;2022-11-23T01:23:59;2.30;99.90
32095;DHT22;18608;53.688;10.748;2022-11-23T01:26:25;2.30;99.90
32095;DHT22;18608;53.688;10.748;2022-11-23T01:28:51;2.40;99.90
32095;DHT22;18608;53.688;10.748;2022-11-23T01:31:19;2.40;99.90
32095;DHT22;18608;53.688;10.748;2022-11-23T01:33:45;2.30;99.90
32095;DHT22;18608;53.688;10.748;2022-11-23T01:36:16;2.30;99.90
32095;DHT22;18608;53.688;10.748;2022-11-23T01:38:44;2.40;99.90
32095;DHT22;18608;53.688;10.748;2022-11-23T01:41:13;2.30;99.90
32095;DHT22;18608;53.688;10.748;2022-11-23T01:43:39;2.30;99.90
32095;DHT22;18608;53.688;10.748;2022-11-23T01:46:05;2.30;99.90
32095;DHT22;18608;53.688;10.748;2022-11-23T01:48:32;2.30;99.90
32095;DHT22;18608;53.688;10.748;2022-11-23T01:51:01;2.30;99.90
32095;DHT22;18608;53.688;10.748;2022-11-23T01:53:30;2.30;99.90
32095;DHT22;18608;53.688;10.748;2022-11-23T01:55:58;2.30;99.90
32095;DHT22;18608;53.688;10.748;2022-11-23T01:58:25;2.40;99.90
32095;DHT22;18608;53.688;10.748;2022-11-23T02:00:52;2.40;99.90
32095;DHT22;18608;53.688;10.748;2022-11-23T02:03:17;2.30;99.90
32095;DHT22;18608;53.688;10.748;2022-11-23T02:05:46;2.40;99.90
32095;DHT22;18608;53.688;10.748;2022-11-23T02:08:14;2.30;99.90
32095;DHT22;18608;53.688;10.748;2022-11-23T02:10:41;2.40;99.90
32095;DHT22;18608;53.688;10.748;2022-11-23T02:13:09;2.40;99.90
32095;DHT22;18608;53.688;10.748;2022-11-23T02:15:36;2.40;99.90
32095;DHT22;18608;53.688;10.748;2022-11-23T02:18:05;2.40;99.90
32095;DHT22;18608;53.688;10.748;2022-11-23T02:20:33;2.30;99.90
32095;DHT22;18608;53.688;10.748;2022-11-23T02:28:47;2.40;99.90
32095;DHT22;18608;53.688;10.748;2022-11-23T02:31:14;2.40;99.90
32095;DHT22;18608;53.688;10.748;2022-11-23T02:33:40;2.40;99.90
32095;DHT22;18608;53.688;10.748;2022-11-23T02:36:37;2.50;99.90
32095;DHT22;18608;53.688;10.748;2022-11-23T02:39:09;2.40;99.90
32095;DHT22;18608;53.688;10.748;2022-11-23T02:41:52;2.40;99.90
32095;DHT22;18608;53.688;10.748;2022-11-23T02:44:45;2.40;99.90
32095;DHT22;18608;53.688;10.748;2022-11-23T02:47:13;2.40;99.90
32095;DHT22;18608;53.688;10.748;2022-11-23T02:49:44;2.40;99.90
32095;DHT22;18608;53.688;10.748;2022-11-23T02:52:10;2.40;99.90
32095;DHT22;18608;53.688;10.748;2022-11-23T02:54:36;2.40;99.90
32095;DHT22;18608;53.688;10.748;2022-11-23T02:57:02;2.50;99.90
32095;DHT22;18608;53.688;10.748;2022-11-23T02:59:28;2.50;99.90
32095;DHT22;18608;53.688;10.748;2022-11-23T03:01:57;2.50;99.90
32095;DHT22;18608;53.688;10.748;2022-11-23T03:04:23;2.50;99.90
32095;DHT22;18608;53.688;10.748;2022-11-23T03:06:48;2.60;99.90
32095;DHT22;18608;53.688;10.748;2022-11-23T03:09:14;2.60;99.90
32095;DHT22;18608;53.688;10.748;2022-11-23T03:11:39;2.60;99.90
32095;DHT22;18608;53.688;10.748;2022-11-23T03:14:05;2.60;99.90
32095;DHT22;18608;53.688;10.748;2022-11-23T03:16:31;2.60;99.90
32095;DHT22;18608;53.688;10.748;2022-11-23T03:18:58;2.60;99.90
32095;DHT22;18608;53.688;10.748;2022-11-23T03:21:24;2.50;99.90
32095;DHT22;18608;53.688;10.748;2022-11-23T03:23:50;2.60;99.90
32095;DHT22;18608;53.688;10.748;2022-11-23T03:26:15;2.60;99.90
32095;DHT22;18608;53.688;10.748;2022-11-23T03:28:41;2.60;99.90
32095;DHT22;18608;53.688;10.748;2022-11-23T03:31:07;2.60;99.90
32095;DHT22;18608;53.688;10.748;2022-11-23T03:33:33;2.60;99.90
32095;DHT22;18608;53.688;10.748;2022-11-23T03:35:59;2.60;99.90
32095;DHT22;18608;53.688;10.748;2022-11-23T03:38:25;2.70;99.90
32095;DHT22;18608;53.688;10.748;2022-11-23T03:40:51;2.60;99.90
32095;DHT22;18608;53.688;10.748;2022-11-23T03:43:17;2.60;99.90
32095;DHT22;18608;53.688;10.748;2022-11-23T03:45:44;2.60;99.90
32095;DHT22;18608;53.688;10.748;2022-11-23T03:48:10;2.60;99.90
32095;DHT22;18608;53.688;10.748;2022-11-23T03:50:35;2.60;99.90
32095;DHT22;18608;53.688;10.748;2022-11-23T03:53:01;2.60;99.90
32095;DHT22;18608;53.688;10.748;2022-11-23T03:55:27;2.60;99.90
32095;DHT22;18608;53.688;10.748;2022-11-23T03:57:53;2.60;99.90
32095;DHT22;18608;53.688;10.748;2022-11-23T04:00:20;2.60;99.90
32095;DHT22;18608;53.688;10.748;2022-11-23T04:02:46;2.60;99.90
32095;DHT22;18608;53.688;10.748;2022-11-23T04:05:12;2.70;99.90
32095;DHT22;18608;53.688;10.748;2022-11-23T04:07:38;2.70;99.90
32095;DHT22;18608;53.688;10.748;2022-11-23T04:10:04;2.70;99.90
32095;DHT22;18608;53.688;10.748;2022-11-23T04:12:30;2.70;99.90
32095;DHT22;18608;53.688;10.748;2022-11-23T04:14:55;2.80;99.90
32095;DHT22;18608;53.688;10.748;2022-11-23T04:17:21;2.70;99.90
32095;DHT22;18608;53.688;10.748;2022-11-23T04:19:47;2.80;99.90
32095;DHT22;18608;53.688;10.748;2022-11-23T04:22:12;2.80;99.90
32095;DHT22;18608;53.688;10.748;2022-11-23T04:24:38;2.70;99.90
32095;DHT22;18608;53.688;10.748;2022-11-23T04:27:04;2.80;99.90
32095;DHT22;18608;53.688;10.748;2022-11-23T04:29:29;2.80;99.90
32095;DHT22;18608;53.688;10.748;2022-11-23T04:31:55;2.80;99.90
32095;DHT22;18608;53.688;10.748;2022-11-23T04:34:20;2.80;99.90
32095;DHT22;18608;53.688;10.748;2022-11-23T04:36:46;2.80;99.90
32095;DHT22;18608;53.688;10.748;2022-11-23T04:39:12;2.80;99.90
32095;DHT22;18608;53.688;10.748;2022-11-23T04:41:38;2.80;99.90
32095;DHT22;18608;53.688;10.748;2022-11-23T04:44:04;2.80;99.90
32095;DHT22;18608;53.688;10.748;2022-11-23T04:46:30;2.90;99.90
32095;DHT22;18608;53.688;10.748;2022-11-23T04:48:56;2.90;99.90
32095;DHT22;18608;53.688;10.748;2022-11-23T04:51:22;2.90;99.90
32095;DHT22;18608;53.688;10.748;2022-11-23T04:53:48;2.90;99.90
32095;DHT22;18608;53.688;10.748;2022-11-23T04:56:13;2.90;99.90
32095;DHT22;18608;53.688;10.748;2022-11-23T04:58:39;2.90;99.90
32095;DHT22;18608;53.688;10.748;2022-11-23T05:01:05;3.00;99.90
32095;DHT22;18608;53.688;10.748;2022-11-23T05:03:31;3.10;99.90
32095;DHT22;18608;53.688;10.748;2022-11-23T05:06:00;3.00;99.90
32095;DHT22;18608;53.688;10.748;2022-11-23T05:08:26;3.10;99.90
32095;DHT22;18608;53.688;10.748;2022-11-23T05:10:52;3.00;99.90
32095;DHT22;18608;53.688;10.748;2022-11-23T05:13:18;3.10;99.90
32095;DHT22;18608;53.688;10.748;2022-11-23T05:15:43;3.00;99.90
32095;DHT22;18608;53.688;10.748;2022-11-23T05:18:10;3.00;99.90
32095;DHT22;18608;53.688;10.748;2022-11-23T05:20:36;3.00;99.90
32095;DHT22;18608;53.688;10.748;2022-11-23T05:23:01;3.10;99.90
32095;DHT22;18608;53.688;10.748;2022-11-23T05:25:27;3.10;99.90
32095;DHT22;18608;53.688;10.748;2022-11-23T05:27:53;3.10;99.90
32095;DHT22;18608;53.688;10.748;2022-11-23T05:30:19;3.10;99.90
32095;DHT22;18608;53.688;10.748;2022-11-23T05:32:45;3.10;99.90
32095;DHT22;18608;53.688;10.748;2022-11-23T05:35:11;3.20;99.90
32095;DHT22;18608;53.688;10.748;2022-11-23T05:37:37;3.10;99.90
32095;DHT22;18608;53.688;10.748;2022-11-23T05:40:04;3.10;99.90
32095;DHT22;18608;53.688;10.748;2022-11-23T05:42:31;3.20;99.90
32095;DHT22;18608;53.688;10.748;2022-11-23T05:44:56;3.20;99.90
32095;DHT22;18608;53.688;10.748;2022-11-23T05:47:22;3.30;99.90
32095;DHT22;18608;53.688;10.748;2022-11-23T05:49:48;3.30;99.90
32095;DHT22;18608;53.688;10.748;2022-11-23T05:52:15;3.20;99.90
32095;DHT22;18608;53.688;10.748;2022-11-23T05:54:40;3.30;99.90
32095;DHT22;18608;53.688;10.748;2022-11-23T05:57:06;3.30;99.90
32095;DHT22;18608;53.688;10.748;2022-11-23T05:59:32;3.30;99.90
32095;DHT22;18608;53.688;10.748;2022-11-23T06:01:57;3.30;99.90
32095;DHT22;18608;53.688;10.748;2022-11-23T06:04:23;3.30;99.90
32095;DHT22;18608;53.688;10.748;2022-11-23T06:06:49;3.30;99.90
32095;DHT22;18608;53.688;10.748;2022-11-23T06:09:14;3.30;99.90
32095;DHT22;18608;53.688;10.748;2022-11-23T06:11:40;3.30;99.90
32095;DHT22;18608;53.688;10.748;2022-11-23T06:14:06;3.30;99.90
32095;DHT22;18608;53.688;10.748;2022-11-23T06:16:32;3.30;99.90
32095;DHT22;18608;53.688;10.748;2022-11-23T06:18:57;3.30;99.90
32095;DHT22;18608;53.688;10.748;2022-11-23T06:21:23;3.30;99.90
32095;DHT22;18608;53.688;10.748;2022-11-23T06:23:48;3.30;99.90
32095;DHT22;18608;53.688;10.748;2022-11-23T06:26:14;3.40;99.90
32095;DHT22;18608;53.688;10.748;2022-11-23T06:28:40;3.40;99.90
32095;DHT22;18608;53.688;10.748;2022-11-23T06:31:06;3.40;99.90
32095;DHT22;18608;53.688;10.748;2022-11-23T06:39:28;3.40;99.90
32095;DHT22;18608;53.688;10.748;2022-11-23T06:41:53;3.50;99.90
32095;DHT22;18608;53.688;10.748;2022-11-23T06:44:19;3.40;99.90
32095;DHT22;18608;53.688;10.748;2022-11-23T06:46:45;3.50;99.90
32095;DHT22;18608;53.688;10.748;2022-11-23T06:49:10;3.40;99.90
32095;DHT22;18608;53.688;10.748;2022-11-23T06:51:36;3.50;99.90
32095;DHT22;18608;53.688;10.748;2022-11-23T06:54:01;3.40;99.90
32095;DHT22;18608;53.688;10.748;2022-11-23T06:56:27;3.50;99.90
32095;DHT22;18608;53.688;10.748;2022-11-23T06:58:52;3.40;99.90
32095;DHT22;18608;53.688;10.748;2022-11-23T07:01:18;3.40;99.90
32095;DHT22;18608;53.688;10.748;2022-11-23T07:03:44;3.40;99.90
32095;DHT22;18608;53.688;10.748;2022-11-23T07:06:09;3.40;99.90
32095;DHT22;18608;53.688;10.748;2022-11-23T07:08:36;3.40;99.90
32095;DHT22;18608;53.688;10.748;2022-11-23T07:11:08;3.40;99.90
32095;DHT22;18608;53.688;10.748;2022-11-23T07:13:34;3.40;99.90
32095;DHT22;18608;53.688;10.748;2022-11-23T07:16:00;3.40;99.90
32095;DHT22;18608;53.688;10.748;2022-11-23T07:18:26;3.40;99.90
32095;DHT22;18608;53.688;10.748;2022-11-23T07:20:51;3.40;99.90
32095;DHT22;18608;53.688;10.748;2022-11-23T07:23:17;3.40;99.90
32095;DHT22;18608;53.688;10.748;2022-11-23T07:25:43;3.30;99.90
32095;DHT22;18608;53.688;10.748;2022-11-23T07:28:09;3.30;99.90
32095;DHT22;18608;53.688;10.748;2022-11-23T07:30:36;3.30;99.90
32095;DHT22;18608;53.688;10.748;2022-11-23T07:33:07;3.40;99.90
32095;DHT22;18608;53.688;10.748;2022-11-23T07:35:35;3.50;99.90
32095;DHT22;18608;53.688;10.748;2022-11-23T07:38:01;3.40;99.90
32095;DHT22;18608;53.688;10.748;2022-11-23T07:40:27;3.40;99.90
32095;DHT22;18608;53.688;10.748;2022-11-23T07:42:59;3.40;99.90
32095;DHT22;18608;53.688;10.748;2022-11-23T07:45:25;3.40;99.90
32095;DHT22;18608;53.688;10.748;2022-11-23T07:48:00;3.40;99.90
32095;DHT22;18608;53.688;10.748;2022-11-23T07:50:27;3.40;99.90
32095;DHT22;18608;53.688;10.748;2022-11-23T07:52:53;3.40;99.90
32095;DHT22;18608;53.688;10.748;2022-11-23T07:55:19;3.40;99.90
32095;DHT22;18608;53.688;10.748;2022-11-23T07:57:44;3.40;99.90
32095;DHT22;18608;53.688;10.748;2022-11-23T08:00:10;3.40;99.90
32095;DHT22;18608;53.688;10.748;2022-11-23T08:02:37;3.40;99.90
32095;DHT22;18608;53.688;10.748;2022-11-23T08:05:03;3.40;99.90
32095;DHT22;18608;53.688;10.748;2022-11-23T08:07:28;3.50;99.90
32095;DHT22;18608;53.688;10.748;2022-11-23T08:09:54;3.60;99.90
32095;DHT22;18608;53.688;10.748;2022-11-23T08:12:20;3.60;99.90
32095;DHT22;18608;53.688;10.748;2022-11-23T08:14:46;3.60;99.90
32095;DHT22;18608;53.688;10.748;2022-11-23T08:17:11;3.60;99.90
32095;DHT22;18608;53.688;10.748;2022-11-23T08:19:37;3.70;99.90
32095;DHT22;18608;53.688;10.748;2022-11-23T08:22:02;3.80;99.90
32095;DHT22;18608;53.688;10.748;2022-11-23T08:24:28;3.70;99.90
32095;DHT22;18608;53.688;10.748;2022-11-23T08:26:55;3.80;99.90
32095;DHT22;18608;53.688;10.748;2022-11-23T08:29:20;3.70;99.90
32095;DHT22;18608;53.688;10.748;2022-11-23T08:31:46;3.80;99.90
32095;DHT22;18608;53.688;10.748;2022-11-23T08:34:12;3.80;99.90
32095;DHT22;18608;53.688;10.748;2022-11-23T08:36:38;3.70;99.90
32095;DHT22;18608;53.688;10.748;2022-11-23T08:39:04;3.70;99.90
32095;DHT22;18608;53.688;10.748;2022-11-23T08:41:30;3.80;99.90
32095;DHT22;18608;53.688;10.748;2022-11-23T08:43:55;3.80;99.90
32095;DHT22;18608;53.688;10.748;2022-11-23T08:46:21;3.80;99.90
32095;DHT22;18608;53.688;10.748;2022-11-23T08:48:47;3.80;99.90
32095;DHT22;18608;53.688;10.748;2022-11-23T08:51:12;3.80;99.90
32095;DHT22;18608;53.688;10.748;2022-11-23T08:53:38;3.90;99.90
32095;DHT22;18608;53.688;10.748;2022-11-23T08:56:05;3.90;99.90
32095;DHT22;18608;53.688;10.748;2022-11-23T08:58:31;3.90;99.90
32095;DHT22;18608;53.688;10.748;2022-11-23T09:00:57;3.90;99.90
32095;DHT22;18608;53.688;10.748;2022-11-23T09:03:23;3.90;99.90
32095;DHT22;18608;53.688;10.748;2022-11-23T09:05:49;4.00;99.90
32095;DHT22;18608;53.688;10.748;2022-11-23T09:08:16;4.00;99.90
32095;DHT22;18608;53.688;10.748;2022-11-23T09:10:41;4.00;99.90
32095;DHT22;18608;53.688;10.748;2022-11-23T09:13:07;4.00;99.90
32095;DHT22;18608;53.688;10.748;2022-11-23T09:15:33;4.00;99.90
32095;DHT22;18608;53.688;10.748;2022-11-23T09:17:58;4.00;99.90
32095;DHT22;18608;53.688;10.748;2022-11-23T09:20:24;4.10;99.90
32095;DHT22;18608;53.688;10.748;2022-11-23T09:22:53;4.20;99.90
32095;DHT22;18608;53.688;10.748;2022-11-23T09:25:21;4.20;99.90
32095;DHT22;18608;53.688;10.748;2022-11-23T09:27:47;4.20;99.90
32095;DHT22;18608;53.688;10.748;2022-11-23T09:30:15;4.20;99.90
32095;DHT22;18608;53.688;10.748;2022-11-23T09:32:41;4.30;99.90
32095;DHT22;18608;53.688;10.748;2022-11-23T09:35:07;4.50;99.90
32095;DHT22;18608;53.688;10.748;2022-11-23T09:37:33;4.50;99.90
32095;DHT22;18608;53.688;10.748;2022-11-23T09:39:59;4.60;99.90
32095;DHT22;18608;53.688;10.748;2022-11-23T09:45:40;4.50;99.90
32095;DHT22;18608;53.688;10.748;2022-11-23T09:50:49;4.70;99.90
32095;DHT22;18608;53.688;10.748;2022-11-23T09:53:22;4.90;99.90
32095;DHT22;18608;53.688;10.748;2022-11-23T09:55:55;4.90;99.90
32095;DHT22;18608;53.688;10.748;2022-11-23T09:58:24;4.90;99.90
32095;DHT22;18608;53.688;10.748;2022-11-23T10:01:11;4.90;99.90
32095;DHT22;18608;53.688;10.748;2022-11-23T10:03:39;4.70;99.90
32095;DHT22;18608;53.688;10.748;2022-11-23T10:09:31;4.80;99.90
32095;DHT22;18608;53.688;10.748;2022-11-23T10:12:26;4.80;99.90
32095;DHT22;18608;53.688;10.748;2022-11-23T10:21:05;5.00;99.90
32095;DHT22;18608;53.688;10.748;2022-11-23T10:26:20;5.00;99.90
32095;DHT22;18608;53.688;10.748;2022-11-23T10:28:49;4.90;99.90
32095;DHT22;18608;53.688;10.748;2022-11-23T10:31:21;6.40;99.90
32095;DHT22;18608;53.688;10.748;2022-11-23T10:36:40;5.00;99.90
32095;DHT22;18608;53.688;10.748;2022-11-23T10:39:22;5.10;99.90
32095;DHT22;18608;53.688;10.748;2022-11-23T10:41:49;5.30;99.90
32095;DHT22;18608;53.688;10.748;2022-11-23T10:44:41;5.30;99.90
32095;DHT22;18608;53.688;10.748;2022-11-23T10:47:08;5.50;99.90
32095;DHT22;18608;53.688;10.748;2022-11-23T10:49:34;5.50;99.90
32095;DHT22;18608;53.688;10.748;2022-11-23T10:52:08;5.50;99.90
32095;DHT22;18608;53.688;10.748;2022-11-23T10:54:54;5.50;99.90
32095;DHT22;18608;53.688;10.748;2022-11-23T11:00:15;5.50;99.90
32095;DHT22;18608;53.688;10.748;2022-11-23T11:05:38;5.60;99.90
32095;DHT22;18608;53.688;10.748;2022-11-23T11:08:17;5.60;99.90
32095;DHT22;18608;53.688;10.748;2022-11-23T11:11:06;5.70;99.90
32095;DHT22;18608;53.688;10.748;2022-11-23T11:13:41;5.70;99.90
32095;DHT22;18608;53.688;10.748;2022-11-23T11:16:32;5.70;99.90
32095;DHT22;18608;53.688;10.748;2022-11-23T11:18:59;5.80;99.90
32095;DHT22;18608;53.688;10.748;2022-11-23T11:21:44;5.70;99.90
32095;DHT22;18608;53.688;10.748;2022-11-23T11:24:43;5.80;99.90
32095;DHT22;18608;53.688;10.748;2022-11-23T11:27:16;5.80;99.90
32095;DHT22;18608;53.688;10.748;2022-11-23T11:37:45;6.10;99.90
32095;DHT22;18608;53.688;10.748;2022-11-23T11:40:35;6.20;99.90
32095;DHT22;18608;53.688;10.748;2022-11-23T11:43:03;6.10;99.90
32095;DHT22;18608;53.688;10.748;2022-11-23T11:45:39;6.20;99.90
32095;DHT22;18608;53.688;10.748;2022-11-23T11:48:58;6.20;99.90
32095;DHT22;18608;53.688;10.748;2022-11-23T11:51:19;6.30;99.90
32095;DHT22;18608;53.688;10.748;2022-11-23T11:56:23;6.30;99.90
32095;DHT22;18608;53.688;10.748;2022-11-23T11:58:55;6.40;99.90
32095;DHT22;18608;53.688;10.748;2022-11-23T12:01:35;6.30;99.90
32095;DHT22;18608;53.688;10.748;2022-11-23T12:04:20;6.30;99.90
32095;DHT22;18608;53.688;10.748;2022-11-23T12:06:53;6.20;99.90
32095;DHT22;18608;53.688;10.748;2022-11-23T12:09:28;6.30;99.90
32095;DHT22;18608;53.688;10.748;2022-11-23T12:11:56;6.30;99.90
32095;DHT22;18608;53.688;10.748;2022-11-23T12:14:22;6.30;99.90
32095;DHT22;18608;53.688;10.748;2022-11-23T12:16:57;6.30;99.90
32095;DHT22;18608;53.688;10.748;2022-11-23T12:30:26;6.20;99.90
32095;DHT22;18608;53.688;10.748;2022-11-23T12:41:49;6.20;99.90
32095;DHT22;18608;53.688;10.748;2022-11-23T12:50:51;6.20;99.90
32095;DHT22;18608;53.688;10.748;2022-11-23T12:53:07;6.20;99.90
32095;DHT22;18608;53.688;10.748;2022-11-23T12:58:46;6.20;99.90
32095;DHT22;18608;53.688;10.748;2022-11-23T13:01:11;6.30;99.90
32095;DHT22;18608;53.688;10.748;2022-11-23T13:06:43;6.40;99.90
32095;DHT22;18608;53.688;10.748;2022-11-23T13:09:37;6.40;99.90
32095;DHT22;18608;53.688;10.748;2022-11-23T13:12:32;6.40;99.90
32095;DHT22;18608;53.688;10.748;2022-11-23T13:21:13;6.40;99.90
32095;DHT22;18608;53.688;10.748;2022-11-23T13:23:11;6.40;99.90
32095;DHT22;18608;53.688;10.748;2022-11-23T13:25:38;6.30;99.90
32095;DHT22;18608;53.688;10.748;2022-11-23T13:28:25;6.30;99.90
32095;DHT22;18608;53.688;10.748;2022-11-23T13:33:46;6.40;99.90
32095;DHT22;18608;53.688;10.748;2022-11-23T13:36:33;6.40;99.90
32095;DHT22;18608;53.688;10.748;2022-11-23T13:39:00;6.40;99.90
32095;DHT22;18608;53.688;10.748;2022-11-23T13:44:24;6.60;99.90
32095;DHT22;18608;53.688;10.748;2022-11-23T13:47:15;6.70;99.90
32095;DHT22;18608;53.688;10.748;2022-11-23T13:49:47;6.70;99.90
32095;DHT22;18608;53.688;10.748;2022-11-23T13:52:28;6.60;99.90
32095;DHT22;18608;53.688;10.748;2022-11-23T13:55:02;6.50;99.90
32095;DHT22;18608;53.688;10.748;2022-11-23T13:57:30;6.40;99.90
32095;DHT22;18608;53.688;10.748;2022-11-23T14:06:04;6.20;99.90
32095;DHT22;18608;53.688;10.748;2022-11-23T14:08:32;6.10;99.90
32095;DHT22;18608;53.688;10.748;2022-11-23T14:10:59;6.10;99.90
32095;DHT22;18608;53.688;10.748;2022-11-23T14:13:31;6.00;99.90
32095;DHT22;18608;53.688;10.748;2022-11-23T14:16:00;6.10;99.90
32095;DHT22;18608;53.688;10.748;2022-11-23T14:21:30;6.00;99.90
32095;DHT22;18608;53.688;10.748;2022-11-23T14:29:39;6.00;99.90
32095;DHT22;18608;53.688;10.748;2022-11-23T14:32:19;6.10;99.90
32095;DHT22;18608;53.688;10.748;2022-11-23T14:43:12;6.10;99.90
32095;DHT22;18608;53.688;10.748;2022-11-23T14:45:39;6.10;99.90
32095;DHT22;18608;53.688;10.748;2022-11-23T14:48:31;6.10;99.90
32095;DHT22;18608;53.688;10.748;2022-11-23T14:51:03;6.10;99.90
32095;DHT22;18608;53.688;10.748;2022-11-23T14:53:38;6.00;99.90
32095;DHT22;18608;53.688;10.748;2022-11-23T14:56:04;5.90;99.90
32095;DHT22;18608;53.688;10.748;2022-11-23T14:58:31;5.90;99.90
32095;DHT22;18608;53.688;10.748;2022-11-23T15:01:01;5.90;99.90
32095;DHT22;18608;53.688;10.748;2022-11-23T15:03:29;5.90;99.90
32095;DHT22;18608;53.688;10.748;2022-11-23T15:06:09;5.90;99.90
32095;DHT22;18608;53.688;10.748;2022-11-23T15:08:51;5.90;99.90
32095;DHT22;18608;53.688;10.748;2022-11-23T15:11:20;5.90;99.90
32095;DHT22;18608;53.688;10.748;2022-11-23T15:13:50;5.90;99.90
32095;DHT22;18608;53.688;10.748;2022-11-23T15:16:18;5.90;99.90
32095;DHT22;18608;53.688;10.748;2022-11-23T15:18:45;5.80;99.90
32095;DHT22;18608;53.688;10.748;2022-11-23T15:23:40;5.80;99.90
32095;DHT22;18608;53.688;10.748;2022-11-23T15:26:13;5.80;99.90
32095;DHT22;18608;53.688;10.748;2022-11-23T15:28:39;5.70;99.90
32095;DHT22;18608;53.688;10.748;2022-11-23T15:33:59;5.70;99.90
32095;DHT22;18608;53.688;10.748;2022-11-23T15:36:29;5.60;99.90
32095;DHT22;18608;53.688;10.748;2022-11-23T15:38:56;5.60;99.90
32095;DHT22;18608;53.688;10.748;2022-11-23T15:41:23;5.60;99.90
32095;DHT22;18608;53.688;10.748;2022-11-23T15:43:54;5.60;99.90
32095;DHT22;18608;53.688;10.748;2022-11-23T15:46:22;5.60;99.90
32095;DHT22;18608;53.688;10.748;2022-11-23T15:48:50;5.50;99.90
32095;DHT22;18608;53.688;10.748;2022-11-23T15:51:35;5.50;99.90
32095;DHT22;18608;53.688;10.748;2022-11-23T15:54:02;5.50;99.90
32095;DHT22;18608;53.688;10.748;2022-11-23T15:56:29;5.50;99.90
32095;DHT22;18608;53.688;10.748;2022-11-23T15:59:42;5.40;99.90
32095;DHT22;18608;53.688;10.748;2022-11-23T16:01:42;5.30;99.90
32095;DHT22;18608;53.688;10.748;2022-11-23T16:06:51;5.40;99.90
32095;DHT22;18608;53.688;10.748;2022-11-23T16:09:38;5.40;99.90
32095;DHT22;18608;53.688;10.748;2022-11-23T16:14:45;5.30;99.90
32095;DHT22;18608;53.688;10.748;2022-11-23T16:17:20;5.20;99.90
32095;DHT22;18608;53.688;10.748;2022-11-23T16:19:52;5.20;99.90
32095;DHT22;18608;53.688;10.748;2022-11-23T16:22:30;5.20;99.90
32095;DHT22;18608;53.688;10.748;2022-11-23T16:25:06;5.20;99.90
32095;DHT22;18608;53.688;10.748;2022-11-23T16:27:32;5.20;99.90
32095;DHT22;18608;53.688;10.748;2022-11-23T16:29:58;5.20;99.90
32095;DHT22;18608;53.688;10.748;2022-11-23T16:32:29;5.20;99.90
32095;DHT22;18608;53.688;10.748;2022-11-23T16:35:03;5.20;99.90
32095;DHT22;18608;53.688;10.748;2022-11-23T16:37:33;5.20;99.90
32095;DHT22;18608;53.688;10.748;2022-11-23T16:39:59;5.00;99.90
32095;DHT22;18608;53.688;10.748;2022-11-23T16:42:24;5.00;99.90
32095;DHT22;18608;53.688;10.748;2022-11-23T16:44:51;4.90;99.90
32095;DHT22;18608;53.688;10.748;2022-11-23T16:47:21;5.00;99.90
32095;DHT22;18608;53.688;10.748;2022-11-23T16:49:47;4.80;99.90
32095;DHT22;18608;53.688;10.748;2022-11-23T16:52:13;4.80;99.90
32095;DHT22;18608;53.688;10.748;2022-11-23T16:54:38;4.80;99.90
32095;DHT22;18608;53.688;10.748;2022-11-23T16:57:04;4.80;99.90
32095;DHT22;18608;53.688;10.748;2022-11-23T16:59:30;4.80;99.90
32095;DHT22;18608;53.688;10.748;2022-11-23T17:01:56;4.70;99.90
32095;DHT22;18608;53.688;10.748;2022-11-23T17:04:22;4.60;99.90
32095;DHT22;18608;53.688;10.748;2022-11-23T17:06:48;4.60;99.90
32095;DHT22;18608;53.688;10.748;2022-11-23T17:09:14;4.60;99.90
32095;DHT22;18608;53.688;10.748;2022-11-23T17:11:42;4.70;99.90
32095;DHT22;18608;53.688;10.748;2022-11-23T17:14:13;4.60;99.90
32095;DHT22;18608;53.688;10.748;2022-11-23T17:16:40;4.60;99.90
32095;DHT22;18608;53.688;10.748;2022-11-23T17:19:17;4.60;99.90
32095;DHT22;18608;53.688;10.748;2022-11-23T17:21:43;4.70;99.90
32095;DHT22;18608;53.688;10.748;2022-11-23T17:24:08;4.70;99.90
32095;DHT22;18608;53.688;10.748;2022-11-23T17:26:38;4.70;99.90
32095;DHT22;18608;53.688;10.748;2022-11-23T17:29:09;4.70;99.90
32095;DHT22;18608;53.688;10.748;2022-11-23T17:31:35;4.80;99.90
32095;DHT22;18608;53.688;10.748;2022-11-23T17:34:01;4.80;99.90
32095;DHT22;18608;53.688;10.748;2022-11-23T17:36:27;4.70;99.90
32095;DHT22;18608;53.688;10.748;2022-11-23T17:38:54;4.70;99.90
32095;DHT22;18608;53.688;10.748;2022-11-23T17:41:20;4.70;99.90
32095;DHT22;18608;53.688;10.748;2022-11-23T17:43:46;4.80;99.90
32095;DHT22;18608;53.688;10.748;2022-11-23T17:46:20;4.70;99.90